Girdwood, AK

8:23 PM AKDT on April 17, 2015 (GMT -0800)
Portage Glacier | | Change Station
CLOSE
Current Station
Airport
Location: Portage Glacier,
Elevation: 102 ft
Nearby Weather Stations

Elev 102 ft 60.78 °N, 148.84 °W | Updated 30 minutes ago

Rain
Rain Mist
36 °F
Feels Like 24 °F
N
25
Wind Variable Wind from ESE
Gusts 45 mph

Today
High -- | Low -- °F
--% Chance of Precip.
Yesterday
High -- | Low -- °F
Precip. -- in
6:30 AM 9:23 PM
Waning Crescent, 1% visible
Pressure 29.92 in
Visibility 1.5 miles
Clouds Mostly Cloudy 1000 ft
Overcast 2100 ft
Windchill 24 °F
Dew Point 32 °F
Humidity 86%
Rainfall 0.69 in
Snow Depth Not available.
UV 0 out of 12
Pollen Not available.
Air Quality Not available.
Flu Activity Sporadic
METAR PATO 180353Z AUTO 11022G39KT 1 1/2SM RA BR BKN010 OVC021 02/00 A2991 RMK AO2 PK WND 09050/0326 RAE22B44SNB22E44 SLP131 P0009 T00220000 TSNO

More Conditions Fewer Conditions

Pressure 29.92 in
Visibility 1.5 miles
Clouds Mostly Cloudy 1000 ft
Overcast 2100 ft
Windchill 24 °F
Dew Point 32 °F
Humidity 86%
Rainfall 0.69 in
Snow Depth Not available.
UV 0 out of 12
Pollen Not available.
Air Quality Not available.
Flu Activity Sporadic
METAR PATO 180353Z AUTO 11022G39KT 1 1/2SM RA BR BKN010 OVC021 02/00 A2991 RMK AO2 PK WND 09050/0326 RAE22B44SNB22E44 SLP131 P0009 T00220000 TSNO

More Conditions Fewer Conditions

10-Day Weather Forecast

Almanac

Astronomy

Apr. 17, 2015 Rise Set
Actual Time
Civil Twilight
Nautical Twilight
Astronomical Twilight
Moon
Length of Visible Light
Length of Day
Tomorrow will be .
, % of the Moon is Illuminated

Today's Extremes

State Highs State Lows

Community

WunderPhotos

Upload Photos

1,814,330 photos uploaded!

WunderBlogs® & News

Nearby

Air Quality

  Air Quality AQ Index Pollutant
Not available.

Snow Depth

Station Depth Elevation

Earthquake Activity

City Distance Mag. Time & Date
Minimum magnitude displayed is 2.5.

Coastal Water Temperatures

Place Temperature

Stations

Nearby Weather Stations

Station Location Temp. Windchill Dew Point Humidity Wind Precip. Elev Updated Type